sensor_id;sensor_type;location;lat;lon;timestamp;temperature;humidity
13436;DHT22;6790;49.520;8.504;2023-12-20T00:01:22;5.70;99.90
13436;DHT22;6790;49.520;8.504;2023-12-20T00:03:48;5.80;99.90
13436;DHT22;6790;49.520;8.504;2023-12-20T00:06:14;6.10;99.90
13436;DHT22;6790;49.520;8.504;2023-12-20T00:08:40;5.50;99.90
13436;DHT22;6790;49.520;8.504;2023-12-20T00:11:05;5.40;99.90
13436;DHT22;6790;49.520;8.504;2023-12-20T00:13:31;5.80;99.90
13436;DHT22;6790;49.520;8.504;2023-12-20T00:15:57;5.90;99.90
13436;DHT22;6790;49.520;8.504;2023-12-20T00:18:23;5.70;99.90
13436;DHT22;6790;49.520;8.504;2023-12-20T00:20:48;5.80;99.90
13436;DHT22;6790;49.520;8.504;2023-12-20T00:23:14;5.90;99.90
13436;DHT22;6790;49.520;8.504;2023-12-20T00:25:40;5.90;99.90
13436;DHT22;6790;49.520;8.504;2023-12-20T00:28:06;6.00;99.90
13436;DHT22;6790;49.520;8.504;2023-12-20T00:30:32;5.50;99.90
13436;DHT22;6790;49.520;8.504;2023-12-20T00:32:57;5.60;99.90
13436;DHT22;6790;49.520;8.504;2023-12-20T00:35:23;6.10;99.90
13436;DHT22;6790;49.520;8.504;2023-12-20T00:37:49;5.70;99.90
13436;DHT22;6790;49.520;8.504;2023-12-20T00:40:15;5.50;99.90
13436;DHT22;6790;49.520;8.504;2023-12-20T00:42:41;6.00;99.90
13436;DHT22;6790;49.520;8.504;2023-12-20T00:45:07;6.10;99.90
13436;DHT22;6790;49.520;8.504;2023-12-20T00:47:33;5.70;99.90
13436;DHT22;6790;49.520;8.504;2023-12-20T00:49:58;5.60;99.90
13436;DHT22;6790;49.520;8.504;2023-12-20T00:52:24;5.80;99.90
13436;DHT22;6790;49.520;8.504;2023-12-20T00:54:50;6.10;99.90
13436;DHT22;6790;49.520;8.504;2023-12-20T00:57:16;5.90;99.90
13436;DHT22;6790;49.520;8.504;2023-12-20T00:59:41;6.00;99.90
13436;DHT22;6790;49.520;8.504;2023-12-20T01:02:07;5.90;99.90
13436;DHT22;6790;49.520;8.504;2023-12-20T01:04:34;5.60;99.90
13436;DHT22;6790;49.520;8.504;2023-12-20T01:06:59;5.50;99.90
13436;DHT22;6790;49.520;8.504;2023-12-20T01:09:25;6.20;99.90
13436;DHT22;6790;49.520;8.504;2023-12-20T01:11:54;5.60;99.90
13436;DHT22;6790;49.520;8.504;2023-12-20T01:14:19;6.20;99.90
13436;DHT22;6790;49.520;8.504;2023-12-20T01:16:45;5.70;99.90
13436;DHT22;6790;49.520;8.504;2023-12-20T01:19:11;6.30;99.90
13436;DHT22;6790;49.520;8.504;2023-12-20T01:21:38;6.00;99.90
13436;DHT22;6790;49.520;8.504;2023-12-20T01:24:04;5.80;99.90
13436;DHT22;6790;49.520;8.504;2023-12-20T01:26:30;6.10;99.90
13436;DHT22;6790;49.520;8.504;2023-12-20T01:28:55;6.10;99.90
13436;DHT22;6790;49.520;8.504;2023-12-20T01:31:21;6.30;99.90
13436;DHT22;6790;49.520;8.504;2023-12-20T01:33:47;5.50;99.90
13436;DHT22;6790;49.520;8.504;2023-12-20T01:36:12;6.00;99.90
13436;DHT22;6790;49.520;8.504;2023-12-20T01:38:38;5.50;99.90
13436;DHT22;6790;49.520;8.504;2023-12-20T01:41:04;5.50;99.90
13436;DHT22;6790;49.520;8.504;2023-12-20T01:43:30;6.00;99.90
13436;DHT22;6790;49.520;8.504;2023-12-20T01:45:57;5.60;99.90
13436;DHT22;6790;49.520;8.504;2023-12-20T01:48:24;5.50;99.90
13436;DHT22;6790;49.520;8.504;2023-12-20T01:50:51;6.30;99.90
13436;DHT22;6790;49.520;8.504;2023-12-20T01:53:17;6.10;99.90
13436;DHT22;6790;49.520;8.504;2023-12-20T01:55:44;5.50;99.90
13436;DHT22;6790;49.520;8.504;2023-12-20T01:58:11;6.30;99.90
13436;DHT22;6790;49.520;8.504;2023-12-20T02:00:37;5.70;99.90
13436;DHT22;6790;49.520;8.504;2023-12-20T02:03:04;6.00;99.90
13436;DHT22;6790;49.520;8.504;2023-12-20T02:05:30;6.20;99.90
13436;DHT22;6790;49.520;8.504;2023-12-20T02:07:57;5.40;99.90
13436;DHT22;6790;49.520;8.504;2023-12-20T02:10:23;6.20;99.90
13436;DHT22;6790;49.520;8.504;2023-12-20T02:12:49;5.80;99.90
13436;DHT22;6790;49.520;8.504;2023-12-20T02:15:15;6.00;99.90
13436;DHT22;6790;49.520;8.504;2023-12-20T02:17:41;6.00;99.90
13436;DHT22;6790;49.520;8.504;2023-12-20T02:20:07;6.00;99.90
13436;DHT22;6790;49.520;8.504;2023-12-20T02:22:33;6.20;99.90
13436;DHT22;6790;49.520;8.504;2023-12-20T02:24:58;6.10;99.90
13436;DHT22;6790;49.520;8.504;2023-12-20T02:27:24;5.40;99.90
13436;DHT22;6790;49.520;8.504;2023-12-20T02:29:50;5.70;99.90
13436;DHT22;6790;49.520;8.504;2023-12-20T02:32:17;5.50;99.90
13436;DHT22;6790;49.520;8.504;2023-12-20T02:34:44;6.10;99.90
13436;DHT22;6790;49.520;8.504;2023-12-20T02:37:09;5.70;99.90
13436;DHT22;6790;49.520;8.504;2023-12-20T02:39:35;5.40;99.90
13436;DHT22;6790;49.520;8.504;2023-12-20T02:42:01;5.90;99.90
13436;DHT22;6790;49.520;8.504;2023-12-20T02:44:26;6.00;99.90
13436;DHT22;6790;49.520;8.504;2023-12-20T02:46:52;6.00;99.90
13436;DHT22;6790;49.520;8.504;2023-12-20T02:49:17;5.30;99.90
13436;DHT22;6790;49.520;8.504;2023-12-20T02:51:43;5.90;99.90
13436;DHT22;6790;49.520;8.504;2023-12-20T02:54:09;5.40;99.90
13436;DHT22;6790;49.520;8.504;2023-12-20T02:56:35;5.50;99.90
13436;DHT22;6790;49.520;8.504;2023-12-20T02:59:00;5.50;99.90
13436;DHT22;6790;49.520;8.504;2023-12-20T03:01:27;5.30;99.90
13436;DHT22;6790;49.520;8.504;2023-12-20T03:03:53;5.70;99.90
13436;DHT22;6790;49.520;8.504;2023-12-20T03:06:19;5.30;99.90
13436;DHT22;6790;49.520;8.504;2023-12-20T03:08:46;5.50;99.90
13436;DHT22;6790;49.520;8.504;2023-12-20T03:11:11;5.50;99.90
13436;DHT22;6790;49.520;8.504;2023-12-20T03:13:37;5.40;99.90
13436;DHT22;6790;49.520;8.504;2023-12-20T03:16:11;5.60;99.90
13436;DHT22;6790;49.520;8.504;2023-12-20T03:18:38;5.70;99.90
13436;DHT22;6790;49.520;8.504;2023-12-20T03:21:04;5.50;99.90
13436;DHT22;6790;49.520;8.504;2023-12-20T03:23:30;5.50;99.90
13436;DHT22;6790;49.520;8.504;2023-12-20T03:25:58;6.10;99.90
13436;DHT22;6790;49.520;8.504;2023-12-20T03:28:24;5.70;99.90
13436;DHT22;6790;49.520;8.504;2023-12-20T03:30:50;5.60;99.90
13436;DHT22;6790;49.520;8.504;2023-12-20T03:33:15;5.70;99.90
13436;DHT22;6790;49.520;8.504;2023-12-20T03:35:41;6.10;99.90
13436;DHT22;6790;49.520;8.504;2023-12-20T03:38:07;5.50;99.90
13436;DHT22;6790;49.520;8.504;2023-12-20T03:40:33;6.00;99.90
13436;DHT22;6790;49.520;8.504;2023-12-20T03:42:59;5.70;99.90
13436;DHT22;6790;49.520;8.504;2023-12-20T03:45:24;5.80;99.90
13436;DHT22;6790;49.520;8.504;2023-12-20T03:47:50;5.30;99.90
13436;DHT22;6790;49.520;8.504;2023-12-20T03:50:21;5.50;99.90
13436;DHT22;6790;49.520;8.504;2023-12-20T03:52:47;5.60;99.90
13436;DHT22;6790;49.520;8.504;2023-12-20T03:55:13;5.50;99.90
13436;DHT22;6790;49.520;8.504;2023-12-20T03:57:39;5.40;99.90
13436;DHT22;6790;49.520;8.504;2023-12-20T04:00:06;5.80;99.90
13436;DHT22;6790;49.520;8.504;2023-12-20T04:02:36;6.10;99.90
13436;DHT22;6790;49.520;8.504;2023-12-20T04:05:05;5.30;99.90
13436;DHT22;6790;49.520;8.504;2023-12-20T04:07:32;5.80;99.90
13436;DHT22;6790;49.520;8.504;2023-12-20T04:09:57;6.20;99.90
13436;DHT22;6790;49.520;8.504;2023-12-20T04:12:23;6.10;99.90
13436;DHT22;6790;49.520;8.504;2023-12-20T04:14:49;6.00;99.90
13436;DHT22;6790;49.520;8.504;2023-12-20T04:17:15;5.50;99.90
13436;DHT22;6790;49.520;8.504;2023-12-20T04:19:42;6.20;99.90
13436;DHT22;6790;49.520;8.504;2023-12-20T04:22:08;5.70;99.90
13436;DHT22;6790;49.520;8.504;2023-12-20T04:24:34;5.40;99.90
13436;DHT22;6790;49.520;8.504;2023-12-20T04:27:00;6.10;99.90
13436;DHT22;6790;49.520;8.504;2023-12-20T04:29:26;5.40;99.90
13436;DHT22;6790;49.520;8.504;2023-12-20T04:31:51;6.00;99.90
13436;DHT22;6790;49.520;8.504;2023-12-20T04:34:17;5.40;99.90
13436;DHT22;6790;49.520;8.504;2023-12-20T04:36:43;6.20;99.90
13436;DHT22;6790;49.520;8.504;2023-12-20T04:39:11;6.20;99.90
13436;DHT22;6790;49.520;8.504;2023-12-20T04:41:37;5.50;99.90
13436;DHT22;6790;49.520;8.504;2023-12-20T04:44:02;6.20;99.90
13436;DHT22;6790;49.520;8.504;2023-12-20T04:46:28;5.50;99.90
13436;DHT22;6790;49.520;8.504;2023-12-20T04:48:54;5.60;99.90
13436;DHT22;6790;49.520;8.504;2023-12-20T04:51:20;5.60;99.90
13436;DHT22;6790;49.520;8.504;2023-12-20T04:53:46;6.10;99.90
13436;DHT22;6790;49.520;8.504;2023-12-20T04:56:11;6.10;99.90
13436;DHT22;6790;49.520;8.504;2023-12-20T04:58:37;5.50;99.90
13436;DHT22;6790;49.520;8.504;2023-12-20T05:01:04;5.90;99.90
13436;DHT22;6790;49.520;8.504;2023-12-20T05:03:31;6.00;99.90
13436;DHT22;6790;49.520;8.504;2023-12-20T05:05:56;5.80;99.90
13436;DHT22;6790;49.520;8.504;2023-12-20T05:08:22;6.00;99.90
13436;DHT22;6790;49.520;8.504;2023-12-20T05:10:48;6.20;99.90
13436;DHT22;6790;49.520;8.504;2023-12-20T05:13:13;6.00;99.90
13436;DHT22;6790;49.520;8.504;2023-12-20T05:15:39;5.50;99.90
13436;DHT22;6790;49.520;8.504;2023-12-20T05:18:05;6.10;99.90
13436;DHT22;6790;49.520;8.504;2023-12-20T05:20:30;6.20;99.90
13436;DHT22;6790;49.520;8.504;2023-12-20T05:22:56;6.20;99.90
13436;DHT22;6790;49.520;8.504;2023-12-20T05:25:22;6.00;99.90
13436;DHT22;6790;49.520;8.504;2023-12-20T05:27:48;6.20;99.90
13436;DHT22;6790;49.520;8.504;2023-12-20T05:30:13;5.80;99.90
13436;DHT22;6790;49.520;8.504;2023-12-20T05:32:39;6.40;99.90
13436;DHT22;6790;49.520;8.504;2023-12-20T05:35:05;5.90;99.90
13436;DHT22;6790;49.520;8.504;2023-12-20T05:37:31;5.90;99.90
13436;DHT22;6790;49.520;8.504;2023-12-20T05:39:57;6.30;99.90
13436;DHT22;6790;49.520;8.504;2023-12-20T05:42:22;6.60;99.90
13436;DHT22;6790;49.520;8.504;2023-12-20T05:44:48;6.10;99.90
13436;DHT22;6790;49.520;8.504;2023-12-20T05:47:14;5.80;99.90
13436;DHT22;6790;49.520;8.504;2023-12-20T05:49:39;6.50;99.90
13436;DHT22;6790;49.520;8.504;2023-12-20T05:52:05;6.00;99.90
13436;DHT22;6790;49.520;8.504;2023-12-20T05:54:31;6.00;99.90
13436;DHT22;6790;49.520;8.504;2023-12-20T05:56:56;6.70;99.90
13436;DHT22;6790;49.520;8.504;2023-12-20T05:59:22;6.10;99.90
13436;DHT22;6790;49.520;8.504;2023-12-20T06:01:48;6.70;99.90
13436;DHT22;6790;49.520;8.504;2023-12-20T06:04:13;6.70;99.90
13436;DHT22;6790;49.520;8.504;2023-12-20T06:06:42;6.50;99.90
13436;DHT22;6790;49.520;8.504;2023-12-20T06:09:08;6.70;99.90
13436;DHT22;6790;49.520;8.504;2023-12-20T06:11:34;6.80;99.90
13436;DHT22;6790;49.520;8.504;2023-12-20T06:13:59;6.10;99.90
13436;DHT22;6790;49.520;8.504;2023-12-20T06:16:25;6.30;99.90
13436;DHT22;6790;49.520;8.504;2023-12-20T06:18:51;6.80;99.90
13436;DHT22;6790;49.520;8.504;2023-12-20T06:21:16;6.50;99.90
13436;DHT22;6790;49.520;8.504;2023-12-20T06:23:42;6.40;99.90
13436;DHT22;6790;49.520;8.504;2023-12-20T06:26:08;6.00;99.90
13436;DHT22;6790;49.520;8.504;2023-12-20T06:28:33;6.00;99.90
13436;DHT22;6790;49.520;8.504;2023-12-20T06:30:59;5.80;99.90
13436;DHT22;6790;49.520;8.504;2023-12-20T06:33:26;5.70;99.90
13436;DHT22;6790;49.520;8.504;2023-12-20T06:35:52;5.90;99.90
13436;DHT22;6790;49.520;8.504;2023-12-20T06:38:18;5.80;99.90
13436;DHT22;6790;49.520;8.504;2023-12-20T06:40:44;5.60;99.90
13436;DHT22;6790;49.520;8.504;2023-12-20T06:43:11;5.50;99.90
13436;DHT22;6790;49.520;8.504;2023-12-20T06:45:37;5.00;99.90
13436;DHT22;6790;49.520;8.504;2023-12-20T06:48:03;5.40;99.90
13436;DHT22;6790;49.520;8.504;2023-12-20T06:50:29;5.60;99.90
13436;DHT22;6790;49.520;8.504;2023-12-20T06:52:55;5.40;99.90
13436;DHT22;6790;49.520;8.504;2023-12-20T06:55:20;5.70;99.90
13436;DHT22;6790;49.520;8.504;2023-12-20T06:57:46;5.30;99.90
13436;DHT22;6790;49.520;8.504;2023-12-20T07:00:12;5.30;99.90
13436;DHT22;6790;49.520;8.504;2023-12-20T07:02:38;5.40;99.90
13436;DHT22;6790;49.520;8.504;2023-12-20T07:05:04;5.00;99.90
13436;DHT22;6790;49.520;8.504;2023-12-20T07:07:30;5.00;99.90
13436;DHT22;6790;49.520;8.504;2023-12-20T07:09:56;4.90;99.90
13436;DHT22;6790;49.520;8.504;2023-12-20T07:12:21;4.70;99.90
13436;DHT22;6790;49.520;8.504;2023-12-20T07:14:47;5.10;99.90
13436;DHT22;6790;49.520;8.504;2023-12-20T07:17:13;5.00;99.90
13436;DHT22;6790;49.520;8.504;2023-12-20T07:19:41;4.80;99.90
13436;DHT22;6790;49.520;8.504;2023-12-20T07:22:07;4.80;99.90
13436;DHT22;6790;49.520;8.504;2023-12-20T07:24:33;5.10;99.90
13436;DHT22;6790;49.520;8.504;2023-12-20T07:27:00;5.00;99.90
13436;DHT22;6790;49.520;8.504;2023-12-20T07:29:26;5.10;99.90
13436;DHT22;6790;49.520;8.504;2023-12-20T07:31:53;4.80;99.90
13436;DHT22;6790;49.520;8.504;2023-12-20T07:34:22;5.10;99.90
13436;DHT22;6790;49.520;8.504;2023-12-20T07:36:47;5.00;99.90
13436;DHT22;6790;49.520;8.504;2023-12-20T07:39:14;4.90;99.90
13436;DHT22;6790;49.520;8.504;2023-12-20T07:41:40;4.80;99.90
13436;DHT22;6790;49.520;8.504;2023-12-20T07:44:06;5.10;99.90
13436;DHT22;6790;49.520;8.504;2023-12-20T07:46:32;5.00;99.90
13436;DHT22;6790;49.520;8.504;2023-12-20T07:48:57;4.90;99.90
13436;DHT22;6790;49.520;8.504;2023-12-20T07:51:23;4.90;99.90
13436;DHT22;6790;49.520;8.504;2023-12-20T07:53:49;5.00;99.90
13436;DHT22;6790;49.520;8.504;2023-12-20T07:56:16;4.90;99.90
13436;DHT22;6790;49.520;8.504;2023-12-20T07:58:43;4.90;99.90
13436;DHT22;6790;49.520;8.504;2023-12-20T08:01:09;5.10;99.90
13436;DHT22;6790;49.520;8.504;2023-12-20T08:03:35;5.10;99.90
13436;DHT22;6790;49.520;8.504;2023-12-20T08:06:02;5.10;99.90
13436;DHT22;6790;49.520;8.504;2023-12-20T08:08:28;4.90;99.90
13436;DHT22;6790;49.520;8.504;2023-12-20T08:10:54;5.10;99.90
13436;DHT22;6790;49.520;8.504;2023-12-20T08:13:19;5.20;99.90
13436;DHT22;6790;49.520;8.504;2023-12-20T08:15:50;5.20;99.90
13436;DHT22;6790;49.520;8.504;2023-12-20T08:18:15;5.30;99.90
13436;DHT22;6790;49.520;8.504;2023-12-20T08:20:41;5.40;99.90
13436;DHT22;6790;49.520;8.504;2023-12-20T08:23:07;5.30;99.90
13436;DHT22;6790;49.520;8.504;2023-12-20T08:25:32;5.30;99.90
13436;DHT22;6790;49.520;8.504;2023-12-20T08:27:58;5.30;99.90
13436;DHT22;6790;49.520;8.504;2023-12-20T08:30:24;5.30;99.90
13436;DHT22;6790;49.520;8.504;2023-12-20T08:32:50;5.30;99.90
13436;DHT22;6790;49.520;8.504;2023-12-20T08:35:16;5.30;99.90
13436;DHT22;6790;49.520;8.504;2023-12-20T08:37:43;5.30;99.90
13436;DHT22;6790;49.520;8.504;2023-12-20T08:40:09;5.30;99.90
13436;DHT22;6790;49.520;8.504;2023-12-20T08:42:35;5.40;99.90
13436;DHT22;6790;49.520;8.504;2023-12-20T08:45:01;5.50;99.90
13436;DHT22;6790;49.520;8.504;2023-12-20T08:47:27;5.50;99.90
13436;DHT22;6790;49.520;8.504;2023-12-20T08:49:52;5.60;99.90
13436;DHT22;6790;49.520;8.504;2023-12-20T08:52:23;5.60;99.90
13436;DHT22;6790;49.520;8.504;2023-12-20T08:54:50;5.60;99.90
13436;DHT22;6790;49.520;8.504;2023-12-20T08:57:22;5.60;99.90
13436;DHT22;6790;49.520;8.504;2023-12-20T08:59:51;5.70;99.90
13436;DHT22;6790;49.520;8.504;2023-12-20T09:02:17;5.70;99.90
13436;DHT22;6790;49.520;8.504;2023-12-20T09:04:43;5.80;99.90
13436;DHT22;6790;49.520;8.504;2023-12-20T09:07:25;5.90;99.90
13436;DHT22;6790;49.520;8.504;2023-12-20T09:09:52;6.00;99.90
13436;DHT22;6790;49.520;8.504;2023-12-20T09:12:19;6.00;99.90
13436;DHT22;6790;49.520;8.504;2023-12-20T09:14:49;6.10;99.90
13436;DHT22;6790;49.520;8.504;2023-12-20T09:17:16;6.10;99.90
13436;DHT22;6790;49.520;8.504;2023-12-20T09:19:42;6.20;99.90
13436;DHT22;6790;49.520;8.504;2023-12-20T09:22:12;6.30;99.90
13436;DHT22;6790;49.520;8.504;2023-12-20T09:24:38;6.30;99.90
13436;DHT22;6790;49.520;8.504;2023-12-20T09:27:04;6.30;99.90
13436;DHT22;6790;49.520;8.504;2023-12-20T09:29:31;6.40;99.90
13436;DHT22;6790;49.520;8.504;2023-12-20T09:31:56;6.40;99.90
13436;DHT22;6790;49.520;8.504;2023-12-20T09:34:23;6.40;99.90
13436;DHT22;6790;49.520;8.504;2023-12-20T09:36:48;6.40;99.90
13436;DHT22;6790;49.520;8.504;2023-12-20T09:39:14;6.50;99.90
13436;DHT22;6790;49.520;8.504;2023-12-20T09:41:44;6.60;99.90
13436;DHT22;6790;49.520;8.504;2023-12-20T09:44:15;6.60;99.90
13436;DHT22;6790;49.520;8.504;2023-12-20T09:46:44;6.70;99.90
13436;DHT22;6790;49.520;8.504;2023-12-20T09:49:11;6.80;99.90
13436;DHT22;6790;49.520;8.504;2023-12-20T09:51:38;7.00;99.90
13436;DHT22;6790;49.520;8.504;2023-12-20T09:54:05;7.20;99.90
13436;DHT22;6790;49.520;8.504;2023-12-20T09:56:31;7.40;99.90
13436;DHT22;6790;49.520;8.504;2023-12-20T09:58:57;7.40;99.90
13436;DHT22;6790;49.520;8.504;2023-12-20T10:01:24;7.40;99.90
13436;DHT22;6790;49.520;8.504;2023-12-20T10:03:51;7.30;99.90
13436;DHT22;6790;49.520;8.504;2023-12-20T10:06:18;7.20;99.90
13436;DHT22;6790;49.520;8.504;2023-12-20T10:08:44;7.20;99.90
13436;DHT22;6790;49.520;8.504;2023-12-20T10:11:10;7.20;99.90
13436;DHT22;6790;49.520;8.504;2023-12-20T10:13:40;7.20;99.90
13436;DHT22;6790;49.520;8.504;2023-12-20T10:16:06;7.20;99.90
13436;DHT22;6790;49.520;8.504;2023-12-20T10:18:35;7.20;99.90
13436;DHT22;6790;49.520;8.504;2023-12-20T10:21:01;7.20;99.90
13436;DHT22;6790;49.520;8.504;2023-12-20T10:23:28;7.10;99.90
13436;DHT22;6790;49.520;8.504;2023-12-20T10:25:59;7.20;99.90
13436;DHT22;6790;49.520;8.504;2023-12-20T10:28:26;7.10;99.90
13436;DHT22;6790;49.520;8.504;2023-12-20T10:30:54;7.10;99.90
13436;DHT22;6790;49.520;8.504;2023-12-20T10:33:27;7.20;99.90
13436;DHT22;6790;49.520;8.504;2023-12-20T10:35:54;7.20;99.90
13436;DHT22;6790;49.520;8.504;2023-12-20T10:38:21;7.20;99.90
13436;DHT22;6790;49.520;8.504;2023-12-20T10:40:47;7.30;99.90
13436;DHT22;6790;49.520;8.504;2023-12-20T10:43:14;7.30;99.90
13436;DHT22;6790;49.520;8.504;2023-12-20T10:45:42;7.30;99.90
13436;DHT22;6790;49.520;8.504;2023-12-20T10:48:10;7.40;99.90
13436;DHT22;6790;49.520;8.504;2023-12-20T10:50:41;7.40;99.90
13436;DHT22;6790;49.520;8.504;2023-12-20T10:53:07;7.40;99.90
13436;DHT22;6790;49.520;8.504;2023-12-20T10:55:33;7.30;99.90
13436;DHT22;6790;49.520;8.504;2023-12-20T10:58:07;7.30;99.90
13436;DHT22;6790;49.520;8.504;2023-12-20T11:00:35;7.20;99.90
13436;DHT22;6790;49.520;8.504;2023-12-20T11:03:07;7.20;99.90
13436;DHT22;6790;49.520;8.504;2023-12-20T11:05:44;7.20;99.90
13436;DHT22;6790;49.520;8.504;2023-12-20T11:08:32;7.30;99.90
13436;DHT22;6790;49.520;8.504;2023-12-20T11:11:10;7.40;99.90
13436;DHT22;6790;49.520;8.504;2023-12-20T11:13:53;7.30;99.90
13436;DHT22;6790;49.520;8.504;2023-12-20T11:16:20;7.20;99.90
13436;DHT22;6790;49.520;8.504;2023-12-20T11:18:47;7.20;99.90
13436;DHT22;6790;49.520;8.504;2023-12-20T11:21:12;7.20;99.90
13436;DHT22;6790;49.520;8.504;2023-12-20T11:23:42;7.20;99.90
13436;DHT22;6790;49.520;8.504;2023-12-20T11:26:08;7.20;99.90
13436;DHT22;6790;49.520;8.504;2023-12-20T11:28:34;7.20;99.90
13436;DHT22;6790;49.520;8.504;2023-12-20T11:31:01;7.30;99.90
13436;DHT22;6790;49.520;8.504;2023-12-20T11:33:31;7.40;99.90
13436;DHT22;6790;49.520;8.504;2023-12-20T11:36:06;7.40;99.90
13436;DHT22;6790;49.520;8.504;2023-12-20T11:38:38;7.40;99.90
13436;DHT22;6790;49.520;8.504;2023-12-20T11:41:18;7.30;99.90
13436;DHT22;6790;49.520;8.504;2023-12-20T11:43:48;7.30;99.90
13436;DHT22;6790;49.520;8.504;2023-12-20T11:46:14;7.30;99.90
13436;DHT22;6790;49.520;8.504;2023-12-20T11:48:39;7.30;99.90
13436;DHT22;6790;49.520;8.504;2023-12-20T11:51:09;7.30;99.90
13436;DHT22;6790;49.520;8.504;2023-12-20T11:53:36;7.30;99.90
13436;DHT22;6790;49.520;8.504;2023-12-20T11:56:03;7.30;99.90
13436;DHT22;6790;49.520;8.504;2023-12-20T11:58:32;7.40;99.90
13436;DHT22;6790;49.520;8.504;2023-12-20T12:00:59;7.30;99.90
13436;DHT22;6790;49.520;8.504;2023-12-20T12:03:25;7.30;99.90
13436;DHT22;6790;49.520;8.504;2023-12-20T12:05:51;7.20;99.90
13436;DHT22;6790;49.520;8.504;2023-12-20T12:08:17;7.10;99.90
13436;DHT22;6790;49.520;8.504;2023-12-20T12:10:46;7.10;99.90
13436;DHT22;6790;49.520;8.504;2023-12-20T12:13:12;7.10;99.90
13436;DHT22;6790;49.520;8.504;2023-12-20T12:15:39;7.10;99.90
13436;DHT22;6790;49.520;8.504;2023-12-20T12:18:07;7.10;99.90
13436;DHT22;6790;49.520;8.504;2023-12-20T12:20:33;7.10;99.90
13436;DHT22;6790;49.520;8.504;2023-12-20T12:25:32;7.10;99.90
13436;DHT22;6790;49.520;8.504;2023-12-20T12:28:00;7.10;99.90
13436;DHT22;6790;49.520;8.504;2023-12-20T12:30:27;7.00;99.90
13436;DHT22;6790;49.520;8.504;2023-12-20T12:32:52;7.10;99.90
13436;DHT22;6790;49.520;8.504;2023-12-20T12:35:19;7.10;99.90
13436;DHT22;6790;49.520;8.504;2023-12-20T12:37:45;7.10;99.90
13436;DHT22;6790;49.520;8.504;2023-12-20T12:40:13;7.10;99.90
13436;DHT22;6790;49.520;8.504;2023-12-20T12:42:40;7.00;99.90
13436;DHT22;6790;49.520;8.504;2023-12-20T12:45:07;7.00;99.90
13436;DHT22;6790;49.520;8.504;2023-12-20T12:47:34;7.00;99.90
13436;DHT22;6790;49.520;8.504;2023-12-20T12:50:00;7.00;99.90
13436;DHT22;6790;49.520;8.504;2023-12-20T12:52:30;7.00;99.90
13436;DHT22;6790;49.520;8.504;2023-12-20T12:54:56;7.00;99.90
13436;DHT22;6790;49.520;8.504;2023-12-20T12:57:21;7.00;99.90
13436;DHT22;6790;49.520;8.504;2023-12-20T12:59:48;7.00;99.90
13436;DHT22;6790;49.520;8.504;2023-12-20T13:02:17;7.10;99.90
13436;DHT22;6790;49.520;8.504;2023-12-20T13:04:42;7.10;99.90
13436;DHT22;6790;49.520;8.504;2023-12-20T13:07:09;7.20;99.90
13436;DHT22;6790;49.520;8.504;2023-12-20T13:09:38;7.20;99.90
13436;DHT22;6790;49.520;8.504;2023-12-20T13:12:07;7.20;99.90
13436;DHT22;6790;49.520;8.504;2023-12-20T13:14:34;7.20;99.90
13436;DHT22;6790;49.520;8.504;2023-12-20T13:17:02;7.30;99.90
13436;DHT22;6790;49.520;8.504;2023-12-20T13:19:29;7.30;99.90
13436;DHT22;6790;49.520;8.504;2023-12-20T13:21:56;7.20;99.90
13436;DHT22;6790;49.520;8.504;2023-12-20T13:24:21;7.30;99.90
13436;DHT22;6790;49.520;8.504;2023-12-20T13:26:47;7.30;99.90
13436;DHT22;6790;49.520;8.504;2023-12-20T13:29:13;7.30;99.90
13436;DHT22;6790;49.520;8.504;2023-12-20T13:31:41;7.30;99.90
13436;DHT22;6790;49.520;8.504;2023-12-20T13:34:07;7.30;99.90
13436;DHT22;6790;49.520;8.504;2023-12-20T13:36:33;7.30;99.90
13436;DHT22;6790;49.520;8.504;2023-12-20T13:38:58;7.30;99.90
13436;DHT22;6790;49.520;8.504;2023-12-20T13:41:24;7.30;99.90
13436;DHT22;6790;49.520;8.504;2023-12-20T13:43:50;7.40;99.90
13436;DHT22;6790;49.520;8.504;2023-12-20T13:46:16;7.30;99.90
13436;DHT22;6790;49.520;8.504;2023-12-20T13:48:42;7.30;99.90
13436;DHT22;6790;49.520;8.504;2023-12-20T13:51:08;7.30;99.90
13436;DHT22;6790;49.520;8.504;2023-12-20T13:53:33;7.30;99.90
13436;DHT22;6790;49.520;8.504;2023-12-20T13:55:59;7.40;99.90
13436;DHT22;6790;49.520;8.504;2023-12-20T13:58:25;7.40;99.90
13436;DHT22;6790;49.520;8.504;2023-12-20T14:00:51;7.40;99.90
13436;DHT22;6790;49.520;8.504;2023-12-20T14:03:17;7.40;99.90
13436;DHT22;6790;49.520;8.504;2023-12-20T14:05:43;7.40;99.90
13436;DHT22;6790;49.520;8.504;2023-12-20T14:08:08;7.40;99.90
13436;DHT22;6790;49.520;8.504;2023-12-20T14:10:35;7.30;99.90
13436;DHT22;6790;49.520;8.504;2023-12-20T14:13:01;7.30;99.90
13436;DHT22;6790;49.520;8.504;2023-12-20T14:15:26;7.20;99.90
13436;DHT22;6790;49.520;8.504;2023-12-20T14:17:52;7.20;99.90
13436;DHT22;6790;49.520;8.504;2023-12-20T14:20:19;7.20;99.90
13436;DHT22;6790;49.520;8.504;2023-12-20T14:22:45;7.20;99.90
13436;DHT22;6790;49.520;8.504;2023-12-20T14:25:12;7.30;99.90
13436;DHT22;6790;49.520;8.504;2023-12-20T14:27:42;7.30;99.90
13436;DHT22;6790;49.520;8.504;2023-12-20T14:30:12;7.30;99.90
13436;DHT22;6790;49.520;8.504;2023-12-20T14:32:39;7.40;99.90
13436;DHT22;6790;49.520;8.504;2023-12-20T14:35:06;7.30;99.90
13436;DHT22;6790;49.520;8.504;2023-12-20T14:37:32;7.30;99.90
13436;DHT22;6790;49.520;8.504;2023-12-20T14:39:57;7.30;99.90
13436;DHT22;6790;49.520;8.504;2023-12-20T14:42:23;7.20;99.90
13436;DHT22;6790;49.520;8.504;2023-12-20T14:44:49;7.10;99.90
13436;DHT22;6790;49.520;8.504;2023-12-20T14:47:17;7.10;99.90
13436;DHT22;6790;49.520;8.504;2023-12-20T14:49:43;7.20;99.90
13436;DHT22;6790;49.520;8.504;2023-12-20T14:52:09;7.20;99.90
13436;DHT22;6790;49.520;8.504;2023-12-20T14:54:38;7.10;99.90
13436;DHT22;6790;49.520;8.504;2023-12-20T14:57:04;7.10;99.90
13436;DHT22;6790;49.520;8.504;2023-12-20T14:59:30;7.10;99.90
13436;DHT22;6790;49.520;8.504;2023-12-20T15:01:55;7.10;99.90
13436;DHT22;6790;49.520;8.504;2023-12-20T15:04:21;7.10;99.90
13436;DHT22;6790;49.520;8.504;2023-12-20T15:06:54;7.10;99.90
13436;DHT22;6790;49.520;8.504;2023-12-20T15:09:20;7.00;99.90
13436;DHT22;6790;49.520;8.504;2023-12-20T15:11:46;6.90;99.90
13436;DHT22;6790;49.520;8.504;2023-12-20T15:14:12;6.90;99.90
13436;DHT22;6790;49.520;8.504;2023-12-20T15:16:40;6.80;99.90
13436;DHT22;6790;49.520;8.504;2023-12-20T15:19:06;6.70;99.90
13436;DHT22;6790;49.520;8.504;2023-12-20T15:21:31;6.70;99.90
13436;DHT22;6790;49.520;8.504;2023-12-20T15:23:59;6.60;99.90
13436;DHT22;6790;49.520;8.504;2023-12-20T15:26:33;6.60;99.90
13436;DHT22;6790;49.520;8.504;2023-12-20T15:29:00;6.70;99.90
13436;DHT22;6790;49.520;8.504;2023-12-20T15:31:30;6.60;99.90
13436;DHT22;6790;49.520;8.504;2023-12-20T15:33:58;6.60;99.90
13436;DHT22;6790;49.520;8.504;2023-12-20T15:36:24;6.50;99.90
13436;DHT22;6790;49.520;8.504;2023-12-20T15:38:51;6.50;99.90
13436;DHT22;6790;49.520;8.504;2023-12-20T15:41:18;6.50;99.90
13436;DHT22;6790;49.520;8.504;2023-12-20T15:43:44;6.50;99.90
13436;DHT22;6790;49.520;8.504;2023-12-20T15:46:10;6.50;99.90
13436;DHT22;6790;49.520;8.504;2023-12-20T15:48:36;6.40;99.90
13436;DHT22;6790;49.520;8.504;2023-12-20T15:51:05;6.50;99.90
13436;DHT22;6790;49.520;8.504;2023-12-20T15:53:32;6.60;99.90
13436;DHT22;6790;49.520;8.504;2023-12-20T15:55:58;6.70;99.90
13436;DHT22;6790;49.520;8.504;2023-12-20T15:58:24;6.70;99.90
13436;DHT22;6790;49.520;8.504;2023-12-20T16:00:49;6.80;99.90